sensor_id;sensor_type;location;lat;lon;timestamp;P1;durP1;ratioP1;P2;durP2;ratioP2
11537;SDS011;50159;49.426;11.182;2023-04-25T00:00:15;3.53;;;3.33;;
11537;SDS011;50159;49.426;11.182;2023-04-25T00:02:42;4.10;;;3.80;;
11537;SDS011;50159;49.426;11.182;2023-04-25T00:05:09;3.93;;;3.47;;
11537;SDS011;50159;49.426;11.182;2023-04-25T00:07:37;3.60;;;3.33;;
11537;SDS011;50159;49.426;11.182;2023-04-25T00:10:04;3.93;;;3.53;;
11537;SDS011;50159;49.426;11.182;2023-04-25T00:12:32;3.17;;;3.03;;
11537;SDS011;50159;49.426;11.182;2023-04-25T00:14:59;3.20;;;3.07;;
11537;SDS011;50159;49.426;11.182;2023-04-25T00:17:26;3.67;;;3.40;;
11537;SDS011;50159;49.426;11.182;2023-04-25T00:19:53;3.90;;;3.70;;
11537;SDS011;50159;49.426;11.182;2023-04-25T00:22:20;3.80;;;3.50;;
11537;SDS011;50159;49.426;11.182;2023-04-25T00:24:46;3.63;;;3.43;;
11537;SDS011;50159;49.426;11.182;2023-04-25T00:27:13;3.27;;;3.07;;
11537;SDS011;50159;49.426;11.182;2023-04-25T00:29:40;3.27;;;3.10;;
11537;SDS011;50159;49.426;11.182;2023-04-25T00:32:06;3.17;;;2.97;;
11537;SDS011;50159;49.426;11.182;2023-04-25T00:34:33;4.50;;;3.60;;
11537;SDS011;50159;49.426;11.182;2023-04-25T00:37:00;4.00;;;3.80;;
11537;SDS011;50159;49.426;11.182;2023-04-25T00:39:30;3.07;;;2.97;;
11537;SDS011;50159;49.426;11.182;2023-04-25T00:41:58;3.20;;;3.07;;
11537;SDS011;50159;49.426;11.182;2023-04-25T00:44:25;3.63;;;3.27;;
11537;SDS011;50159;49.426;11.182;2023-04-25T00:46:54;3.57;;;3.30;;
11537;SDS011;50159;49.426;11.182;2023-04-25T00:49:21;3.53;;;3.30;;
11537;SDS011;50159;49.426;11.182;2023-04-25T00:51:48;3.37;;;3.17;;
11537;SDS011;50159;49.426;11.182;2023-04-25T00:54:15;3.43;;;3.20;;
11537;SDS011;50159;49.426;11.182;2023-04-25T00:56:42;3.93;;;3.73;;
11537;SDS011;50159;49.426;11.182;2023-04-25T00:59:11;3.40;;;3.23;;
11537;SDS011;50159;49.426;11.182;2023-04-25T01:01:39;3.60;;;3.40;;
11537;SDS011;50159;49.426;11.182;2023-04-25T01:04:05;2.87;;;2.77;;
11537;SDS011;50159;49.426;11.182;2023-04-25T01:06:33;3.03;;;2.90;;
11537;SDS011;50159;49.426;11.182;2023-04-25T01:08:59;2.97;;;2.87;;
11537;SDS011;50159;49.426;11.182;2023-04-25T01:11:27;3.13;;;3.00;;
11537;SDS011;50159;49.426;11.182;2023-04-25T01:13:54;3.17;;;2.87;;
11537;SDS011;50159;49.426;11.182;2023-04-25T01:16:20;2.63;;;2.53;;
11537;SDS011;50159;49.426;11.182;2023-04-25T01:18:50;2.73;;;2.63;;
11537;SDS011;50159;49.426;11.182;2023-04-25T01:21:17;2.97;;;2.77;;
11537;SDS011;50159;49.426;11.182;2023-04-25T01:23:44;3.17;;;2.97;;
11537;SDS011;50159;49.426;11.182;2023-04-25T01:26:11;3.60;;;3.40;;
11537;SDS011;50159;49.426;11.182;2023-04-25T01:28:39;3.10;;;2.80;;
11537;SDS011;50159;49.426;11.182;2023-04-25T01:31:09;3.50;;;3.30;;
11537;SDS011;50159;49.426;11.182;2023-04-25T01:33:37;2.90;;;2.77;;
11537;SDS011;50159;49.426;11.182;2023-04-25T01:36:04;3.03;;;2.93;;
11537;SDS011;50159;49.426;11.182;2023-04-25T01:38:31;2.97;;;2.87;;
11537;SDS011;50159;49.426;11.182;2023-04-25T01:40:58;2.77;;;2.67;;
11537;SDS011;50159;49.426;11.182;2023-04-25T01:43:25;3.20;;;3.00;;
11537;SDS011;50159;49.426;11.182;2023-04-25T01:45:52;2.70;;;2.60;;
11537;SDS011;50159;49.426;11.182;2023-04-25T01:48:19;2.80;;;2.70;;
11537;SDS011;50159;49.426;11.182;2023-04-25T01:50:46;3.40;;;3.20;;
11537;SDS011;50159;49.426;11.182;2023-04-25T01:53:13;3.00;;;2.90;;
11537;SDS011;50159;49.426;11.182;2023-04-25T01:55:40;2.87;;;2.67;;
11537;SDS011;50159;49.426;11.182;2023-04-25T01:58:07;3.00;;;2.70;;
11537;SDS011;50159;49.426;11.182;2023-04-25T02:00:35;3.10;;;3.00;;
11537;SDS011;50159;49.426;11.182;2023-04-25T02:03:07;2.67;;;2.47;;
11537;SDS011;50159;49.426;11.182;2023-04-25T02:05:38;3.93;;;3.53;;
11537;SDS011;50159;49.426;11.182;2023-04-25T02:08:06;4.00;;;3.53;;
11537;SDS011;50159;49.426;11.182;2023-04-25T02:10:34;3.70;;;3.33;;
11537;SDS011;50159;49.426;11.182;2023-04-25T02:13:01;3.07;;;2.97;;
11537;SDS011;50159;49.426;11.182;2023-04-25T02:15:28;3.27;;;3.07;;
11537;SDS011;50159;49.426;11.182;2023-04-25T02:17:55;3.00;;;2.80;;
11537;SDS011;50159;49.426;11.182;2023-04-25T02:20:22;3.17;;;3.07;;
11537;SDS011;50159;49.426;11.182;2023-04-25T02:22:50;3.27;;;3.07;;
11537;SDS011;50159;49.426;11.182;2023-04-25T02:25:17;3.47;;;3.27;;
11537;SDS011;50159;49.426;11.182;2023-04-25T02:27:46;3.17;;;3.00;;
11537;SDS011;50159;49.426;11.182;2023-04-25T02:30:13;3.73;;;3.53;;
11537;SDS011;50159;49.426;11.182;2023-04-25T02:32:40;3.77;;;3.57;;
11537;SDS011;50159;49.426;11.182;2023-04-25T02:35:07;3.77;;;3.40;;
11537;SDS011;50159;49.426;11.182;2023-04-25T02:37:35;4.27;;;3.87;;
11537;SDS011;50159;49.426;11.182;2023-04-25T02:40:03;4.90;;;4.57;;
11537;SDS011;50159;49.426;11.182;2023-04-25T02:42:30;3.60;;;3.40;;
11537;SDS011;50159;49.426;11.182;2023-04-25T02:44:57;3.43;;;3.23;;
11537;SDS011;50159;49.426;11.182;2023-04-25T02:47:24;3.43;;;3.27;;
11537;SDS011;50159;49.426;11.182;2023-04-25T02:49:50;4.17;;;3.97;;
11537;SDS011;50159;49.426;11.182;2023-04-25T02:52:17;4.27;;;4.07;;
11537;SDS011;50159;49.426;11.182;2023-04-25T02:54:44;4.13;;;3.90;;
11537;SDS011;50159;49.426;11.182;2023-04-25T02:57:10;3.63;;;3.43;;
11537;SDS011;50159;49.426;11.182;2023-04-25T02:59:37;3.20;;;3.10;;
11537;SDS011;50159;49.426;11.182;2023-04-25T03:02:04;3.77;;;3.53;;
11537;SDS011;50159;49.426;11.182;2023-04-25T03:04:31;4.57;;;4.17;;
11537;SDS011;50159;49.426;11.182;2023-04-25T03:06:59;4.20;;;4.00;;
11537;SDS011;50159;49.426;11.182;2023-04-25T03:09:26;4.13;;;3.87;;
11537;SDS011;50159;49.426;11.182;2023-04-25T03:11:52;4.87;;;4.47;;
11537;SDS011;50159;49.426;11.182;2023-04-25T03:14:19;4.37;;;3.97;;
11537;SDS011;50159;49.426;11.182;2023-04-25T03:16:46;4.47;;;4.17;;
11537;SDS011;50159;49.426;11.182;2023-04-25T03:19:12;4.90;;;4.50;;
11537;SDS011;50159;49.426;11.182;2023-04-25T03:21:42;4.07;;;3.87;;
11537;SDS011;50159;49.426;11.182;2023-04-25T03:24:08;5.23;;;4.83;;
11537;SDS011;50159;49.426;11.182;2023-04-25T03:26:37;4.63;;;4.33;;
11537;SDS011;50159;49.426;11.182;2023-04-25T03:29:03;4.20;;;3.90;;
11537;SDS011;50159;49.426;11.182;2023-04-25T03:31:30;5.50;;;4.60;;
11537;SDS011;50159;49.426;11.182;2023-04-25T03:33:57;4.63;;;4.33;;
11537;SDS011;50159;49.426;11.182;2023-04-25T03:36:24;4.50;;;4.20;;
11537;SDS011;50159;49.426;11.182;2023-04-25T03:38:50;5.30;;;4.83;;
11537;SDS011;50159;49.426;11.182;2023-04-25T03:41:17;5.80;;;4.27;;
11537;SDS011;50159;49.426;11.182;2023-04-25T03:43:44;4.00;;;3.80;;
11537;SDS011;50159;49.426;11.182;2023-04-25T03:46:10;3.90;;;3.70;;
11537;SDS011;50159;49.426;11.182;2023-04-25T03:48:37;4.47;;;4.10;;
11537;SDS011;50159;49.426;11.182;2023-04-25T03:51:03;5.20;;;4.80;;
11537;SDS011;50159;49.426;11.182;2023-04-25T03:53:30;5.83;;;4.57;;
11537;SDS011;50159;49.426;11.182;2023-04-25T03:55:57;4.73;;;4.43;;
11537;SDS011;50159;49.426;11.182;2023-04-25T03:58:24;5.40;;;5.00;;
11537;SDS011;50159;49.426;11.182;2023-04-25T04:00:50;5.57;;;5.07;;
11537;SDS011;50159;49.426;11.182;2023-04-25T04:03:17;5.40;;;4.90;;
11537;SDS011;50159;49.426;11.182;2023-04-25T04:05:44;4.43;;;4.20;;
11537;SDS011;50159;49.426;11.182;2023-04-25T04:08:11;5.03;;;4.73;;
11537;SDS011;50159;49.426;11.182;2023-04-25T04:10:38;4.27;;;4.03;;
11537;SDS011;50159;49.426;11.182;2023-04-25T04:13:05;5.07;;;4.57;;
11537;SDS011;50159;49.426;11.182;2023-04-25T04:15:31;8.20;;;5.10;;
11537;SDS011;50159;49.426;11.182;2023-04-25T04:17:59;5.03;;;4.60;;
11537;SDS011;50159;49.426;11.182;2023-04-25T04:20:29;4.63;;;4.27;;
11537;SDS011;50159;49.426;11.182;2023-04-25T04:22:56;5.00;;;4.50;;
11537;SDS011;50159;49.426;11.182;2023-04-25T04:25:23;4.90;;;4.50;;
11537;SDS011;50159;49.426;11.182;2023-04-25T04:27:50;5.13;;;4.70;;
11537;SDS011;50159;49.426;11.182;2023-04-25T04:30:23;4.50;;;4.20;;
11537;SDS011;50159;49.426;11.182;2023-04-25T04:32:51;5.03;;;4.57;;
11537;SDS011;50159;49.426;11.182;2023-04-25T04:35:18;3.60;;;3.40;;
11537;SDS011;50159;49.426;11.182;2023-04-25T04:37:45;4.27;;;3.97;;
11537;SDS011;50159;49.426;11.182;2023-04-25T04:40:12;5.23;;;4.07;;
11537;SDS011;50159;49.426;11.182;2023-04-25T04:42:43;4.77;;;4.20;;
11537;SDS011;50159;49.426;11.182;2023-04-25T04:45:13;4.37;;;4.00;;
11537;SDS011;50159;49.426;11.182;2023-04-25T04:47:40;5.33;;;4.57;;
11537;SDS011;50159;49.426;11.182;2023-04-25T04:50:07;4.77;;;4.40;;
11537;SDS011;50159;49.426;11.182;2023-04-25T04:52:35;4.90;;;4.50;;
11537;SDS011;50159;49.426;11.182;2023-04-25T04:55:03;4.13;;;3.83;;
11537;SDS011;50159;49.426;11.182;2023-04-25T04:57:31;4.57;;;4.17;;
11537;SDS011;50159;49.426;11.182;2023-04-25T05:00:00;4.50;;;4.20;;
11537;SDS011;50159;49.426;11.182;2023-04-25T05:02:27;6.30;;;4.20;;
11537;SDS011;50159;49.426;11.182;2023-04-25T05:04:55;4.67;;;4.37;;
11537;SDS011;50159;49.426;11.182;2023-04-25T05:07:23;4.33;;;4.03;;
11537;SDS011;50159;49.426;11.182;2023-04-25T05:09:49;4.57;;;4.23;;
11537;SDS011;50159;49.426;11.182;2023-04-25T05:12:16;4.63;;;4.23;;
11537;SDS011;50159;49.426;11.182;2023-04-25T05:14:43;4.33;;;3.90;;
11537;SDS011;50159;49.426;11.182;2023-04-25T05:17:09;6.30;;;4.50;;
11537;SDS011;50159;49.426;11.182;2023-04-25T05:19:36;4.67;;;4.30;;
11537;SDS011;50159;49.426;11.182;2023-04-25T05:22:04;5.23;;;4.73;;
11537;SDS011;50159;49.426;11.182;2023-04-25T05:24:31;5.10;;;4.60;;
11537;SDS011;50159;49.426;11.182;2023-04-25T05:26:58;3.93;;;3.63;;
11537;SDS011;50159;49.426;11.182;2023-04-25T05:29:24;4.67;;;4.37;;
11537;SDS011;50159;49.426;11.182;2023-04-25T05:31:51;7.10;;;4.40;;
11537;SDS011;50159;49.426;11.182;2023-04-25T05:34:19;4.97;;;4.57;;
11537;SDS011;50159;49.426;11.182;2023-04-25T05:36:45;4.63;;;4.23;;
11537;SDS011;50159;49.426;11.182;2023-04-25T05:39:15;6.03;;;5.63;;
11537;SDS011;50159;49.426;11.182;2023-04-25T05:41:43;6.20;;;5.00;;
11537;SDS011;50159;49.426;11.182;2023-04-25T05:44:10;5.23;;;4.87;;
11537;SDS011;50159;49.426;11.182;2023-04-25T05:46:36;6.30;;;5.37;;
11537;SDS011;50159;49.426;11.182;2023-04-25T05:49:03;6.37;;;5.00;;
11537;SDS011;50159;49.426;11.182;2023-04-25T05:51:30;6.77;;;6.17;;
11537;SDS011;50159;49.426;11.182;2023-04-25T05:53:57;5.90;;;5.50;;
11537;SDS011;50159;49.426;11.182;2023-04-25T05:56:24;4.70;;;4.40;;
11537;SDS011;50159;49.426;11.182;2023-04-25T05:58:50;4.83;;;4.47;;
11537;SDS011;50159;49.426;11.182;2023-04-25T06:01:17;5.27;;;4.87;;
11537;SDS011;50159;49.426;11.182;2023-04-25T06:03:44;5.20;;;4.70;;
11537;SDS011;50159;49.426;11.182;2023-04-25T06:06:11;5.70;;;5.30;;
11537;SDS011;50159;49.426;11.182;2023-04-25T06:08:38;5.73;;;5.33;;
11537;SDS011;50159;49.426;11.182;2023-04-25T06:11:04;4.83;;;4.43;;
11537;SDS011;50159;49.426;11.182;2023-04-25T06:13:33;6.07;;;5.10;;
11537;SDS011;50159;49.426;11.182;2023-04-25T06:15:59;4.90;;;4.50;;
11537;SDS011;50159;49.426;11.182;2023-04-25T06:18:26;5.30;;;4.83;;
11537;SDS011;50159;49.426;11.182;2023-04-25T06:20:53;6.57;;;6.07;;
11537;SDS011;50159;49.426;11.182;2023-04-25T06:23:19;5.20;;;4.70;;
11537;SDS011;50159;49.426;11.182;2023-04-25T06:25:46;5.43;;;5.03;;
11537;SDS011;50159;49.426;11.182;2023-04-25T06:28:13;5.43;;;5.03;;
11537;SDS011;50159;49.426;11.182;2023-04-25T06:30:40;4.97;;;4.47;;
11537;SDS011;50159;49.426;11.182;2023-04-25T06:33:07;5.10;;;4.70;;
11537;SDS011;50159;49.426;11.182;2023-04-25T06:35:35;5.10;;;4.70;;
11537;SDS011;50159;49.426;11.182;2023-04-25T06:38:01;4.80;;;4.40;;
11537;SDS011;50159;49.426;11.182;2023-04-25T06:40:28;4.40;;;4.00;;
11537;SDS011;50159;49.426;11.182;2023-04-25T06:42:54;4.73;;;4.43;;
11537;SDS011;50159;49.426;11.182;2023-04-25T06:45:21;4.97;;;4.60;;
11537;SDS011;50159;49.426;11.182;2023-04-25T06:47:48;4.50;;;4.20;;
11537;SDS011;50159;49.426;11.182;2023-04-25T06:50:14;5.63;;;5.03;;
11537;SDS011;50159;49.426;11.182;2023-04-25T06:52:41;5.43;;;5.03;;
11537;SDS011;50159;49.426;11.182;2023-04-25T06:55:08;5.53;;;5.13;;
11537;SDS011;50159;49.426;11.182;2023-04-25T06:57:35;5.57;;;5.17;;
11537;SDS011;50159;49.426;11.182;2023-04-25T07:00:02;5.03;;;4.63;;
11537;SDS011;50159;49.426;11.182;2023-04-25T07:02:31;5.23;;;4.83;;
11537;SDS011;50159;49.426;11.182;2023-04-25T07:04:58;4.70;;;4.30;;
11537;SDS011;50159;49.426;11.182;2023-04-25T07:07:26;4.87;;;4.47;;
11537;SDS011;50159;49.426;11.182;2023-04-25T07:09:53;5.03;;;4.70;;
11537;SDS011;50159;49.426;11.182;2023-04-25T07:12:19;7.20;;;5.00;;
11537;SDS011;50159;49.426;11.182;2023-04-25T07:14:46;6.20;;;5.70;;
11537;SDS011;50159;49.426;11.182;2023-04-25T07:17:13;4.27;;;4.03;;
11537;SDS011;50159;49.426;11.182;2023-04-25T07:19:39;4.40;;;4.10;;
11537;SDS011;50159;49.426;11.182;2023-04-25T07:22:06;5.00;;;4.70;;
11537;SDS011;50159;49.426;11.182;2023-04-25T07:24:33;6.40;;;5.43;;
11537;SDS011;50159;49.426;11.182;2023-04-25T07:26:59;5.87;;;5.40;;
11537;SDS011;50159;49.426;11.182;2023-04-25T07:29:27;5.40;;;5.00;;
11537;SDS011;50159;49.426;11.182;2023-04-25T07:31:54;5.17;;;4.70;;
11537;SDS011;50159;49.426;11.182;2023-04-25T07:34:21;5.70;;;5.30;;
11537;SDS011;50159;49.426;11.182;2023-04-25T07:36:47;6.27;;;5.67;;
11537;SDS011;50159;49.426;11.182;2023-04-25T07:39:14;6.00;;;5.47;;
11537;SDS011;50159;49.426;11.182;2023-04-25T07:41:41;6.30;;;4.87;;
11537;SDS011;50159;49.426;11.182;2023-04-25T07:44:07;4.37;;;4.07;;
11537;SDS011;50159;49.426;11.182;2023-04-25T07:46:34;3.83;;;3.53;;
11537;SDS011;50159;49.426;11.182;2023-04-25T07:49:01;3.53;;;3.23;;
11537;SDS011;50159;49.426;11.182;2023-04-25T07:51:27;2.87;;;2.70;;
11537;SDS011;50159;49.426;11.182;2023-04-25T07:53:54;3.00;;;2.80;;
11537;SDS011;50159;49.426;11.182;2023-04-25T07:56:21;2.70;;;2.50;;
11537;SDS011;50159;49.426;11.182;2023-04-25T07:58:49;2.77;;;2.67;;
11537;SDS011;50159;49.426;11.182;2023-04-25T08:01:16;2.20;;;2.10;;
11537;SDS011;50159;49.426;11.182;2023-04-25T08:03:43;2.20;;;2.10;;
11537;SDS011;50159;49.426;11.182;2023-04-25T08:06:10;2.53;;;2.43;;
11537;SDS011;50159;49.426;11.182;2023-04-25T08:08:37;2.37;;;2.27;;
11537;SDS011;50159;49.426;11.182;2023-04-25T08:11:04;4.27;;;2.20;;
11537;SDS011;50159;49.426;11.182;2023-04-25T08:13:31;2.40;;;2.30;;
11537;SDS011;50159;49.426;11.182;2023-04-25T08:15:57;2.10;;;1.93;;
11537;SDS011;50159;49.426;11.182;2023-04-25T08:18:24;2.47;;;2.37;;
11537;SDS011;50159;49.426;11.182;2023-04-25T08:20:51;2.50;;;2.40;;
11537;SDS011;50159;49.426;11.182;2023-04-25T08:23:17;3.07;;;2.87;;
11537;SDS011;50159;49.426;11.182;2023-04-25T08:25:44;3.00;;;2.80;;
11537;SDS011;50159;49.426;11.182;2023-04-25T08:28:11;2.80;;;2.50;;
11537;SDS011;50159;49.426;11.182;2023-04-25T08:30:38;4.17;;;2.40;;
11537;SDS011;50159;49.426;11.182;2023-04-25T08:33:05;2.70;;;2.43;;
11537;SDS011;50159;49.426;11.182;2023-04-25T08:35:31;2.73;;;2.63;;
11537;SDS011;50159;49.426;11.182;2023-04-25T08:37:59;2.60;;;2.40;;
11537;SDS011;50159;49.426;11.182;2023-04-25T08:40:27;2.83;;;2.63;;
11537;SDS011;50159;49.426;11.182;2023-04-25T08:42:58;2.87;;;2.67;;
11537;SDS011;50159;49.426;11.182;2023-04-25T08:45:29;4.93;;;2.60;;
11537;SDS011;50159;49.426;11.182;2023-04-25T08:47:58;2.27;;;2.17;;
11537;SDS011;50159;49.426;11.182;2023-04-25T08:50:27;5.77;;;2.70;;
11537;SDS011;50159;49.426;11.182;2023-04-25T08:52:54;2.83;;;2.53;;
11537;SDS011;50159;49.426;11.182;2023-04-25T08:55:24;3.13;;;2.37;;
11537;SDS011;50159;49.426;11.182;2023-04-25T08:57:52;3.10;;;2.90;;
11537;SDS011;50159;49.426;11.182;2023-04-25T09:00:21;5.27;;;2.63;;
11537;SDS011;50159;49.426;11.182;2023-04-25T09:02:48;3.23;;;2.93;;
11537;SDS011;50159;49.426;11.182;2023-04-25T09:05:16;2.93;;;2.73;;
11537;SDS011;50159;49.426;11.182;2023-04-25T09:07:46;3.27;;;2.93;;
11537;SDS011;50159;49.426;11.182;2023-04-25T09:10:15;4.20;;;2.70;;
11537;SDS011;50159;49.426;11.182;2023-04-25T09:12:42;3.20;;;2.90;;
11537;SDS011;50159;49.426;11.182;2023-04-25T09:15:10;7.90;;;3.30;;
11537;SDS011;50159;49.426;11.182;2023-04-25T09:17:46;2.67;;;2.57;;
11537;SDS011;50159;49.426;11.182;2023-04-25T09:20:22;3.87;;;2.90;;
11537;SDS011;50159;49.426;11.182;2023-04-25T09:22:49;5.07;;;4.63;;
11537;SDS011;50159;49.426;11.182;2023-04-25T09:25:15;4.30;;;4.00;;
11537;SDS011;50159;49.426;11.182;2023-04-25T09:27:49;4.00;;;3.70;;
11537;SDS011;50159;49.426;11.182;2023-04-25T09:30:18;4.40;;;4.07;;
11537;SDS011;50159;49.426;11.182;2023-04-25T09:32:56;3.93;;;3.73;;
11537;SDS011;50159;49.426;11.182;2023-04-25T09:35:24;4.57;;;3.87;;
11537;SDS011;50159;49.426;11.182;2023-04-25T09:37:55;5.67;;;3.90;;
11537;SDS011;50159;49.426;11.182;2023-04-25T09:40:22;4.10;;;3.80;;
11537;SDS011;50159;49.426;11.182;2023-04-25T09:42:48;5.33;;;4.23;;
11537;SDS011;50159;49.426;11.182;2023-04-25T09:45:15;4.80;;;3.77;;
11537;SDS011;50159;49.426;11.182;2023-04-25T09:47:42;3.67;;;3.47;;
11537;SDS011;50159;49.426;11.182;2023-04-25T09:50:13;3.40;;;3.20;;
11537;SDS011;50159;49.426;11.182;2023-04-25T09:52:42;2.57;;;2.53;;
11537;SDS011;50159;49.426;11.182;2023-04-25T09:55:09;3.17;;;2.97;;
11537;SDS011;50159;49.426;11.182;2023-04-25T09:57:36;3.53;;;3.23;;
11537;SDS011;50159;49.426;11.182;2023-04-25T10:00:06;3.00;;;2.90;;
11537;SDS011;50159;49.426;11.182;2023-04-25T10:02:38;2.80;;;2.60;;
11537;SDS011;50159;49.426;11.182;2023-04-25T10:05:08;3.27;;;3.07;;
11537;SDS011;50159;49.426;11.182;2023-04-25T10:07:36;2.67;;;2.53;;
11537;SDS011;50159;49.426;11.182;2023-04-25T10:10:04;2.97;;;2.77;;
11537;SDS011;50159;49.426;11.182;2023-04-25T10:12:32;3.07;;;2.83;;
11537;SDS011;50159;49.426;11.182;2023-04-25T10:15:00;3.03;;;2.87;;
11537;SDS011;50159;49.426;11.182;2023-04-25T10:17:28;3.17;;;2.63;;
11537;SDS011;50159;49.426;11.182;2023-04-25T10:19:56;3.30;;;3.10;;
11537;SDS011;50159;49.426;11.182;2023-04-25T10:22:26;3.00;;;2.73;;
11537;SDS011;50159;49.426;11.182;2023-04-25T10:24:57;2.50;;;2.40;;
11537;SDS011;50159;49.426;11.182;2023-04-25T10:27:26;4.33;;;3.13;;
11537;SDS011;50159;49.426;11.182;2023-04-25T10:30:03;3.53;;;2.60;;
11537;SDS011;50159;49.426;11.182;2023-04-25T10:32:35;2.93;;;2.73;;
11537;SDS011;50159;49.426;11.182;2023-04-25T10:35:11;4.93;;;3.20;;
11537;SDS011;50159;49.426;11.182;2023-04-25T10:40:41;2.50;;;2.40;;
11537;SDS011;50159;49.426;11.182;2023-04-25T10:43:44;2.83;;;2.73;;
11537;SDS011;50159;49.426;11.182;2023-04-25T10:46:15;2.37;;;2.27;;
11537;SDS011;50159;49.426;11.182;2023-04-25T10:48:46;3.23;;;3.03;;
11537;SDS011;50159;49.426;11.182;2023-04-25T10:51:31;2.63;;;2.53;;
11537;SDS011;50159;49.426;11.182;2023-04-25T10:54:18;2.20;;;2.10;;
11537;SDS011;50159;49.426;11.182;2023-04-25T10:56:48;2.67;;;2.47;;
11537;SDS011;50159;49.426;11.182;2023-04-25T10:59:17;1.90;;;1.80;;
11537;SDS011;50159;49.426;11.182;2023-04-25T11:01:46;1.83;;;1.80;;
11537;SDS011;50159;49.426;11.182;2023-04-25T11:07:02;3.70;;;1.97;;
11537;SDS011;50159;49.426;11.182;2023-04-25T11:09:38;2.10;;;2.00;;
11537;SDS011;50159;49.426;11.182;2023-04-25T11:12:09;2.30;;;2.20;;
11537;SDS011;50159;49.426;11.182;2023-04-25T11:14:38;2.70;;;2.50;;
11537;SDS011;50159;49.426;11.182;2023-04-25T11:17:06;2.37;;;2.17;;
11537;SDS011;50159;49.426;11.182;2023-04-25T11:19:33;2.00;;;1.90;;
11537;SDS011;50159;49.426;11.182;2023-04-25T11:22:00;1.83;;;1.50;;
11537;SDS011;50159;49.426;11.182;2023-04-25T11:24:28;1.77;;;1.53;;
11537;SDS011;50159;49.426;11.182;2023-04-25T11:26:56;2.97;;;1.73;;
11537;SDS011;50159;49.426;11.182;2023-04-25T11:29:28;1.87;;;1.77;;
11537;SDS011;50159;49.426;11.182;2023-04-25T11:31:55;1.80;;;1.70;;
11537;SDS011;50159;49.426;11.182;2023-04-25T11:34:24;1.67;;;1.63;;
11537;SDS011;50159;49.426;11.182;2023-04-25T11:36:52;3.23;;;1.80;;
11537;SDS011;50159;49.426;11.182;2023-04-25T11:39:19;1.73;;;1.60;;
11537;SDS011;50159;49.426;11.182;2023-04-25T11:41:47;1.70;;;1.60;;
11537;SDS011;50159;49.426;11.182;2023-04-25T11:44:17;2.30;;;1.60;;
11537;SDS011;50159;49.426;11.182;2023-04-25T11:46:45;2.93;;;1.90;;
11537;SDS011;50159;49.426;11.182;2023-04-25T11:49:12;1.73;;;1.63;;
11537;SDS011;50159;49.426;11.182;2023-04-25T11:51:45;1.80;;;1.70;;
11537;SDS011;50159;49.426;11.182;2023-04-25T11:54:13;2.37;;;2.27;;
11537;SDS011;50159;49.426;11.182;2023-04-25T11:56:41;2.07;;;1.97;;
11537;SDS011;50159;49.426;11.182;2023-04-25T11:59:08;2.77;;;1.80;;
11537;SDS011;50159;49.426;11.182;2023-04-25T12:01:37;2.37;;;1.83;;
11537;SDS011;50159;49.426;11.182;2023-04-25T12:04:12;1.67;;;1.57;;
11537;SDS011;50159;49.426;11.182;2023-04-25T12:06:41;1.80;;;1.70;;
11537;SDS011;50159;49.426;11.182;2023-04-25T12:09:09;2.57;;;2.03;;
11537;SDS011;50159;49.426;11.182;2023-04-25T12:11:40;1.87;;;1.87;;
11537;SDS011;50159;49.426;11.182;2023-04-25T12:14:12;1.87;;;1.47;;
11537;SDS011;50159;49.426;11.182;2023-04-25T12:16:46;1.77;;;1.37;;
11537;SDS011;50159;49.426;11.182;2023-04-25T12:19:15;1.60;;;1.50;;
11537;SDS011;50159;49.426;11.182;2023-04-25T12:21:43;1.20;;;1.20;;
11537;SDS011;50159;49.426;11.182;2023-04-25T12:24:24;1.60;;;1.50;;
11537;SDS011;50159;49.426;11.182;2023-04-25T12:26:58;1.30;;;1.30;;
11537;SDS011;50159;49.426;11.182;2023-04-25T12:29:28;1.30;;;1.30;;
11537;SDS011;50159;49.426;11.182;2023-04-25T12:32:07;1.20;;;1.20;;
11537;SDS011;50159;49.426;11.182;2023-04-25T12:34:34;1.33;;;1.33;;
11537;SDS011;50159;49.426;11.182;2023-04-25T12:37:01;1.40;;;1.30;;
11537;SDS011;50159;49.426;11.182;2023-04-25T12:39:31;1.30;;;1.30;;
11537;SDS011;50159;49.426;11.182;2023-04-25T12:41:58;1.40;;;1.40;;
11537;SDS011;50159;49.426;11.182;2023-04-25T12:44:25;1.40;;;1.40;;
11537;SDS011;50159;49.426;11.182;2023-04-25T12:46:52;1.30;;;1.30;;
11537;SDS011;50159;49.426;11.182;2023-04-25T12:49:20;1.50;;;1.50;;
11537;SDS011;50159;49.426;11.182;2023-04-25T12:51:47;1.30;;;1.30;;
11537;SDS011;50159;49.426;11.182;2023-04-25T12:54:14;1.50;;;1.40;;
11537;SDS011;50159;49.426;11.182;2023-04-25T12:56:41;1.50;;;1.50;;
11537;SDS011;50159;49.426;11.182;2023-04-25T12:59:08;1.90;;;1.80;;
11537;SDS011;50159;49.426;11.182;2023-04-25T13:01:35;1.50;;;1.50;;
11537;SDS011;50159;49.426;11.182;2023-04-25T13:04:02;1.87;;;1.70;;
11537;SDS011;50159;49.426;11.182;2023-04-25T13:06:29;2.30;;;1.50;;
11537;SDS011;50159;49.426;11.182;2023-04-25T13:08:57;1.93;;;1.80;;
11537;SDS011;50159;49.426;11.182;2023-04-25T13:11:23;3.17;;;1.70;;
11537;SDS011;50159;49.426;11.182;2023-04-25T13:13:50;1.60;;;1.50;;
11537;SDS011;50159;49.426;11.182;2023-04-25T13:16:18;5.47;;;1.60;;
11537;SDS011;50159;49.426;11.182;2023-04-25T13:18:46;1.40;;;1.40;;
11537;SDS011;50159;49.426;11.182;2023-04-25T13:21:13;1.40;;;1.40;;
11537;SDS011;50159;49.426;11.182;2023-04-25T13:23:40;1.77;;;1.63;;
11537;SDS011;50159;49.426;11.182;2023-04-25T13:26:08;1.60;;;1.60;;
11537;SDS011;50159;49.426;11.182;2023-04-25T13:28:35;1.70;;;1.60;;
11537;SDS011;50159;49.426;11.182;2023-04-25T13:31:02;1.50;;;1.50;;
11537;SDS011;50159;49.426;11.182;2023-04-25T13:33:29;2.00;;;1.90;;
11537;SDS011;50159;49.426;11.182;2023-04-25T13:35:55;1.83;;;1.73;;
11537;SDS011;50159;49.426;11.182;2023-04-25T13:38:24;1.50;;;1.50;;
11537;SDS011;50159;49.426;11.182;2023-04-25T13:40:51;1.60;;;1.60;;
11537;SDS011;50159;49.426;11.182;2023-04-25T13:43:19;1.73;;;1.67;;
11537;SDS011;50159;49.426;11.182;2023-04-25T13:45:50;1.83;;;1.73;;
11537;SDS011;50159;49.426;11.182;2023-04-25T13:48:18;1.90;;;1.60;;
11537;SDS011;50159;49.426;11.182;2023-04-25T13:50:45;1.87;;;1.77;;
11537;SDS011;50159;49.426;11.182;2023-04-25T13:53:12;1.60;;;1.60;;
11537;SDS011;50159;49.426;11.182;2023-04-25T13:55:39;2.03;;;1.83;;
11537;SDS011;50159;49.426;11.182;2023-04-25T13:58:06;1.90;;;1.90;;
11537;SDS011;50159;49.426;11.182;2023-04-25T14:00:37;1.70;;;1.70;;
11537;SDS011;50159;49.426;11.182;2023-04-25T14:03:05;2.00;;;1.90;;
11537;SDS011;50159;49.426;11.182;2023-04-25T14:05:34;1.63;;;1.60;;
11537;SDS011;50159;49.426;11.182;2023-04-25T14:08:05;1.60;;;1.60;;
11537;SDS011;50159;49.426;11.182;2023-04-25T14:10:34;1.57;;;1.57;;
11537;SDS011;50159;49.426;11.182;2023-04-25T14:13:01;2.10;;;2.00;;
11537;SDS011;50159;49.426;11.182;2023-04-25T14:15:32;3.03;;;1.80;;
11537;SDS011;50159;49.426;11.182;2023-04-25T14:18:00;1.60;;;1.60;;
11537;SDS011;50159;49.426;11.182;2023-04-25T14:20:27;2.30;;;2.10;;
11537;SDS011;50159;49.426;11.182;2023-04-25T14:22:57;1.83;;;1.73;;
11537;SDS011;50159;49.426;11.182;2023-04-25T14:25:24;1.70;;;1.70;;
11537;SDS011;50159;49.426;11.182;2023-04-25T14:27:51;2.00;;;1.90;;
11537;SDS011;50159;49.426;11.182;2023-04-25T14:30:18;2.50;;;2.00;;
11537;SDS011;50159;49.426;11.182;2023-04-25T14:32:48;2.20;;;2.10;;
11537;SDS011;50159;49.426;11.182;2023-04-25T14:35:15;2.27;;;2.17;;
11537;SDS011;50159;49.426;11.182;2023-04-25T14:37:42;2.33;;;2.23;;
11537;SDS011;50159;49.426;11.182;2023-04-25T14:40:10;2.17;;;1.97;;
11537;SDS011;50159;49.426;11.182;2023-04-25T14:42:39;3.47;;;2.07;;